Time;durP1;ratioP1;P1;durP2;ratioP2;P2;SDS_P1;SDS_P2;PMS_P1;PMS_P2;Temp;Humidity;BMP_temperature;BMP_pressure;BME280_temperature;BME280_humidity;BME280_pressure;Samples;Min_cycle;Max_cycle;Signal;HPM_P1;HPM_P2
2022/10/18 00:01:33;;;;;;;;;;;13.80;88.50;;;;;;5092282;28;19962;-88
2022/10/18 00:03:58;;;;;;;;;;;13.70;88.40;;;;;;5092555;28;20034;-88
2022/10/18 00:06:24;;;;;;;;;;;13.70;88.80;;;;;;5094138;28;19970;-88
2022/10/18 00:08:49;;;;;;;;;;;13.70;88.90;;;;;;5096183;28;19946;-88
2022/10/18 00:11:15;;;;;;;;;;;13.70;88.80;;;;;;5095844;28;19973;-88
2022/10/18 00:13:40;;;;;;;;;;;13.60;88.30;;;;;;5096061;28;19951;-88
2022/10/18 00:16:09;;;;;;;;;;;13.70;88.40;;;;;;5096262;28;19939;-88
2022/10/18 00:18:35;;;;;;;;;;;13.70;87.90;;;;;;5095795;28;19944;-88
2022/10/18 00:21:02;;;;;;;;;;;13.80;88.20;;;;;;5095800;28;19963;-88
2022/10/18 00:23:28;;;;;;;;;;;13.90;87.70;;;;;;5096139;28;19944;-88
2022/10/18 00:25:57;;;;;;;;;;;13.90;87.50;;;;;;5095852;28;20301;-89
2022/10/18 00:28:23;;;;;;;;;;;13.80;87.10;;;;;;5095404;28;20073;-88
2022/10/18 00:30:48;;;;;;;;;;;13.80;85.90;;;;;;5095774;28;19999;-88
2022/10/18 00:33:14;;;;;;;;;;;13.70;86.10;;;;;;5095773;28;19976;-89
2022/10/18 00:35:39;;;;;;;;;;;13.60;86.50;;;;;;5095706;28;20460;-89
2022/10/18 00:38:05;;;;;;;;;;;13.60;87.10;;;;;;5095403;28;19963;-88
2022/10/18 00:40:30;;;;;;;;;;;13.50;86.80;;;;;;5095281;28;20492;-88
2022/10/18 00:42:56;;;;;;;;;;;13.40;86.00;;;;;;5095782;28;20397;-88
2022/10/18 00:45:22;;;;;;;;;;;13.40;85.30;;;;;;5095532;28;19967;-88
2022/10/18 00:47:53;;;;;;;;;;;13.30;85.40;;;;;;5095414;28;19940;-88
2022/10/18 00:50:20;;;;;;;;;;;13.40;85.90;;;;;;5095103;28;19946;-88
2022/10/18 00:52:48;;;;;;;;;;;13.40;86.00;;;;;;5095237;28;20159;-88
2022/10/18 00:55:13;;;;;;;;;;;13.30;87.30;;;;;;5095305;28;20039;-89
2022/10/18 00:57:40;;;;;;;;;;;13.30;87.70;;;;;;5095183;28;19989;-88
2022/10/18 01:00:08;;;;;;;;;;;13.30;87.80;;;;;;5094685;28;19996;-88
2022/10/18 01:02:35;;;;;;;;;;;13.30;88.10;;;;;;5095200;28;19949;-88
2022/10/18 01:05:00;;;;;;;;;;;13.30;87.00;;;;;;5077008;28;19980;-88
2022/10/18 01:07:44;;;;;;;;;;;13.30;86.40;;;;;;5094846;28;20405;-88
2022/10/18 01:10:28;;;;;;;;;;;13.30;86.60;;;;;;5094344;28;20033;-88
2022/10/18 01:12:59;;;;;;;;;;;13.30;86.10;;;;;;5094894;28;20309;-88
2022/10/18 01:15:27;;;;;;;;;;;13.20;85.80;;;;;;5094879;28;19938;-88
2022/10/18 01:17:55;;;;;;;;;;;13.10;85.80;;;;;;5094391;28;20002;-88
2022/10/18 01:20:39;;;;;;;;;;;13.10;86.00;;;;;;5094456;28;20490;-88
2022/10/18 01:23:08;;;;;;;;;;;13.10;86.10;;;;;;5094750;28;19944;-88
2022/10/18 01:25:52;;;;;;;;;;;13.10;86.40;;;;;;5094662;28;20284;-88
2022/10/18 01:28:38;;;;;;;;;;;13.00;86.10;;;;;;5094163;28;20347;-88
2022/10/18 01:31:07;;;;;;;;;;;13.00;85.90;;;;;;5094847;28;19974;-88
2022/10/18 01:33:36;;;;;;;;;;;13.00;85.80;;;;;;5094528;28;20356;-88
2022/10/18 01:36:14;;;;;;;;;;;13.00;85.80;;;;;;5094308;28;19943;-88
2022/10/18 01:38:41;;;;;;;;;;;13.10;86.10;;;;;;5094468;28;19937;-88
2022/10/18 01:41:08;;;;;;;;;;;13.10;86.40;;;;;;5094313;28;19962;-89
2022/10/18 01:43:35;;;;;;;;;;;13.00;87.10;;;;;;5094050;28;19948;-88
2022/10/18 01:46:02;;;;;;;;;;;13.00;87.50;;;;;;5093880;28;19956;-88
2022/10/18 01:48:28;;;;;;;;;;;13.00;87.10;;;;;;5093832;28;19947;-88
2022/10/18 01:50:53;;;;;;;;;;;13.00;87.40;;;;;;5094066;28;19957;-88
2022/10/18 01:53:20;;;;;;;;;;;13.10;87.60;;;;;;5094104;28;20301;-88
2022/10/18 01:55:51;;;;;;;;;;;13.10;87.70;;;;;;5094141;28;19943;-88
2022/10/18 01:58:24;;;;;;;;;;;13.10;88.30;;;;;;5093881;28;19967;-88
2022/10/18 02:00:55;;;;;;;;;;;13.20;87.90;;;;;;5093979;28;20432;-88
2022/10/18 02:03:22;;;;;;;;;;;13.20;87.90;;;;;;5093966;28;19942;-88
2022/10/18 02:05:48;;;;;;;;;;;13.10;88.00;;;;;;5093523;28;19966;-88
2022/10/18 02:08:13;;;;;;;;;;;13.20;88.50;;;;;;5093898;28;19943;-88
2022/10/18 02:10:47;;;;;;;;;;;13.20;88.60;;;;;;5093832;28;20029;-88
2022/10/18 02:13:14;;;;;;;;;;;13.10;88.20;;;;;;5093767;28;20033;-87
2022/10/18 02:15:41;;;;;;;;;;;13.20;87.60;;;;;;5075286;28;20284;-88
2022/10/18 02:18:09;;;;;;;;;;;13.20;88.60;;;;;;5093566;28;19951;-88
2022/10/18 02:20:36;;;;;;;;;;;13.00;86.70;;;;;;5093635;28;19957;-88
2022/10/18 02:23:03;;;;;;;;;;;12.80;86.90;;;;;;5093650;28;19946;-88
2022/10/18 02:25:30;;;;;;;;;;;12.80;88.80;;;;;;5093264;28;20419;-88
2022/10/18 02:27:56;;;;;;;;;;;12.70;88.50;;;;;;5093078;28;20028;-88
2022/10/18 02:30:23;;;;;;;;;;;12.70;88.50;;;;;;5093168;28;19940;-88
2022/10/18 02:33:02;;;;;;;;;;;12.90;88.50;;;;;;5093568;28;19943;-88
2022/10/18 02:35:29;;;;;;;;;;;12.90;88.30;;;;;;5093240;28;19947;-88
2022/10/18 02:37:56;;;;;;;;;;;12.90;88.00;;;;;;5093321;28;19944;-88
2022/10/18 02:40:23;;;;;;;;;;;12.90;88.10;;;;;;5093387;28;19967;-88
2022/10/18 02:42:53;;;;;;;;;;;12.90;88.10;;;;;;5093440;28;19942;-88
2022/10/18 02:45:18;;;;;;;;;;;13.00;88.20;;;;;;5093088;28;19948;-88
2022/10/18 02:47:44;;;;;;;;;;;13.00;87.40;;;;;;5093350;28;19944;-88
2022/10/18 02:50:10;;;;;;;;;;;13.00;86.40;;;;;;5093238;28;20454;-88
2022/10/18 02:52:35;;;;;;;;;;;13.00;85.90;;;;;;5093129;28;19959;-88
2022/10/18 02:55:01;;;;;;;;;;;13.00;86.30;;;;;;5093069;28;19944;-88
2022/10/18 02:57:26;;;;;;;;;;;13.00;87.40;;;;;;5093091;28;19944;-88
2022/10/18 02:59:52;;;;;;;;;;;13.00;87.70;;;;;;5093158;28;19941;-88
2022/10/18 03:02:17;;;;;;;;;;;13.10;87.60;;;;;;5093100;28;19964;-88
2022/10/18 03:04:43;;;;;;;;;;;13.10;86.80;;;;;;5092906;28;19937;-88
2022/10/18 03:07:09;;;;;;;;;;;13.00;86.50;;;;;;5093114;28;19946;-88
2022/10/18 03:09:34;;;;;;;;;;;13.00;86.70;;;;;;5093081;28;19938;-88
2022/10/18 03:12:00;;;;;;;;;;;13.00;87.10;;;;;;5093074;28;20027;-88
2022/10/18 03:14:25;;;;;;;;;;;12.90;87.70;;;;;;5093072;28;20034;-88
2022/10/18 03:16:51;;;;;;;;;;;12.90;87.80;;;;;;5092716;28;20038;-88
2022/10/18 03:19:16;;;;;;;;;;;12.90;87.10;;;;;;5093010;28;19969;-89
2022/10/18 03:21:42;;;;;;;;;;;12.80;85.80;;;;;;5092906;28;19990;-88
2022/10/18 03:24:07;;;;;;;;;;;12.80;86.50;;;;;;5092959;28;19937;-88
2022/10/18 03:26:33;;;;;;;;;;;12.80;87.50;;;;;;5092693;28;19955;-88
2022/10/18 03:28:58;;;;;;;;;;;12.80;88.20;;;;;;5092704;28;19985;-89
2022/10/18 03:31:24;;;;;;;;;;;12.80;88.00;;;;;;5092926;28;19935;-88
2022/10/18 03:33:49;;;;;;;;;;;12.80;86.70;;;;;;5092878;28;19940;-88
2022/10/18 03:36:15;;;;;;;;;;;12.90;86.60;;;;;;5092538;28;19947;-88
2022/10/18 03:38:41;;;;;;;;;;;12.90;86.30;;;;;;5093072;28;20310;-88
2022/10/18 03:41:06;;;;;;;;;;;12.80;85.60;;;;;;5095644;28;19988;-88
2022/10/18 03:43:32;;;;;;;;;;;12.80;85.80;;;;;;5096449;28;19946;-88
2022/10/18 03:45:57;;;;;;;;;;;12.70;86.50;;;;;;5096621;28;19940;-88
2022/10/18 03:48:23;;;;;;;;;;;12.70;86.60;;;;;;5096599;28;19939;-88
2022/10/18 03:50:48;;;;;;;;;;;12.70;86.70;;;;;;5096672;28;19996;-89
2022/10/18 03:53:14;;;;;;;;;;;12.70;87.40;;;;;;5096050;28;19963;-88
2022/10/18 03:55:39;;;;;;;;;;;12.80;87.70;;;;;;5096141;28;19947;-88
2022/10/18 03:58:05;;;;;;;;;;;12.70;87.10;;;;;;5096282;28;19947;-88
2022/10/18 04:00:31;;;;;;;;;;;12.80;86.80;;;;;;5096298;28;19965;-88
2022/10/18 04:02:56;;;;;;;;;;;12.60;87.30;;;;;;5096011;28;19951;-88
2022/10/18 04:05:27;;;;;;;;;;;12.50;87.80;;;;;;5096189;28;19943;-88
2022/10/18 04:07:53;;;;;;;;;;;12.40;89.10;;;;;;5096483;28;20080;-88
2022/10/18 04:10:18;;;;;;;;;;;12.40;89.50;;;;;;5096132;28;19946;-88
2022/10/18 04:12:44;;;;;;;;;;;12.30;89.20;;;;;;5077723;28;20051;-88
2022/10/18 04:15:09;;;;;;;;;;;12.30;88.90;;;;;;5077611;28;19945;-88
2022/10/18 04:17:35;;;;;;;;;;;12.30;89.10;;;;;;5096080;28;20031;-88
2022/10/18 04:20:00;;;;;;;;;;;12.40;89.10;;;;;;5096002;28;20325;-88
2022/10/18 04:22:26;;;;;;;;;;;12.30;89.40;;;;;;5095696;28;20316;-88
2022/10/18 04:24:52;;;;;;;;;;;12.40;89.50;;;;;;5095918;28;20432;-88
2022/10/18 04:27:17;;;;;;;;;;;12.50;88.80;;;;;;5096153;28;19942;-88
2022/10/18 04:29:43;;;;;;;;;;;12.60;86.80;;;;;;5095697;28;20094;-88
2022/10/18 04:32:08;;;;;;;;;;;12.70;86.10;;;;;;5095455;28;19947;-88
2022/10/18 04:34:34;;;;;;;;;;;12.60;85.00;;;;;;5095715;28;19946;-88
2022/10/18 04:36:59;;;;;;;;;;;12.60;85.80;;;;;;5095709;28;19938;-88
2022/10/18 04:39:25;;;;;;;;;;;12.60;86.20;;;;;;5095620;28;19940;-88
2022/10/18 04:41:50;;;;;;;;;;;12.70;86.40;;;;;;5095478;28;19961;-88
2022/10/18 04:44:16;;;;;;;;;;;12.60;86.30;;;;;;5095327;28;19951;-88
2022/10/18 04:46:41;;;;;;;;;;;12.60;86.10;;;;;;5095504;28;20018;-88
2022/10/18 04:49:07;;;;;;;;;;;12.60;86.50;;;;;;5095395;28;19941;-88
2022/10/18 04:51:32;;;;;;;;;;;12.60;86.10;;;;;;5094347;28;19963;-89
2022/10/18 04:53:58;;;;;;;;;;;12.50;86.20;;;;;;5094933;28;19947;-88
2022/10/18 04:56:23;;;;;;;;;;;12.40;86.50;;;;;;5095346;28;19939;-88
2022/10/18 04:58:49;;;;;;;;;;;12.40;88.20;;;;;;5095233;28;19957;-88
2022/10/18 05:01:16;;;;;;;;;;;12.40;87.70;;;;;;5093958;28;20061;-88
2022/10/18 05:03:41;;;;;;;;;;;12.40;87.60;;;;;;5093601;28;19950;-88
2022/10/18 05:06:07;;;;;;;;;;;12.50;87.40;;;;;;5095099;28;19944;-88
2022/10/18 05:08:33;;;;;;;;;;;12.50;87.00;;;;;;5094947;28;19942;-88
2022/10/18 05:10:59;;;;;;;;;;;12.50;86.70;;;;;;5094978;28;20052;-88
2022/10/18 05:13:24;;;;;;;;;;;12.50;86.70;;;;;;5093917;28;20406;-88
2022/10/18 05:15:50;;;;;;;;;;;12.50;86.90;;;;;;5093922;28;19995;-88
2022/10/18 05:18:16;;;;;;;;;;;12.50;86.90;;;;;;5094143;28;20396;-88
2022/10/18 05:20:41;;;;;;;;;;;12.40;85.90;;;;;;5093553;28;19981;-88
2022/10/18 05:23:09;;;;;;;;;;;12.40;85.80;;;;;;5094236;28;19957;-88
2022/10/18 05:25:38;;;;;;;;;;;12.40;85.70;;;;;;5094632;28;19991;-88
2022/10/18 05:28:04;;;;;;;;;;;12.40;85.70;;;;;;5093696;28;19964;-88
2022/10/18 05:30:29;;;;;;;;;;;12.40;86.60;;;;;;5084323;28;19940;-88
2022/10/18 05:32:55;;;;;;;;;;;12.40;86.80;;;;;;5063266;28;19975;-88
2022/10/18 05:35:20;;;;;;;;;;;12.40;86.50;;;;;;5093242;28;20440;-88
2022/10/18 05:37:46;;;;;;;;;;;12.50;87.00;;;;;;5094138;28;20287;-88
2022/10/18 05:40:11;;;;;;;;;;;12.60;87.60;;;;;;5092772;28;20427;-88
2022/10/18 05:42:37;;;;;;;;;;;12.60;87.80;;;;;;5094246;28;20380;-88
2022/10/18 05:45:03;;;;;;;;;;;12.70;87.70;;;;;;5093245;28;19967;-88
2022/10/18 05:47:28;;;;;;;;;;;12.80;87.60;;;;;;5092442;28;20423;-88
2022/10/18 05:49:54;;;;;;;;;;;12.70;87.00;;;;;;5092669;28;19947;-88
2022/10/18 05:52:19;;;;;;;;;;;12.70;87.00;;;;;;5093605;28;19967;-88
2022/10/18 05:54:45;;;;;;;;;;;12.70;87.50;;;;;;5092691;28;19946;-89
2022/10/18 05:57:10;;;;;;;;;;;12.80;88.20;;;;;;5089767;28;20363;-88
2022/10/18 05:59:36;;;;;;;;;;;12.70;86.70;;;;;;5089873;28;19950;-88
2022/10/18 06:02:02;;;;;;;;;;;12.80;86.60;;;;;;5091734;28;20478;-88
2022/10/18 06:04:27;;;;;;;;;;;12.80;86.60;;;;;;5092641;28;20002;-88
2022/10/18 06:06:54;;;;;;;;;;;12.70;86.10;;;;;;5075140;28;20001;-88
2022/10/18 06:09:20;;;;;;;;;;;12.70;86.00;;;;;;5090205;28;19946;-88
2022/10/18 06:11:45;;;;;;;;;;;12.80;85.80;;;;;;5091697;28;20001;-88
2022/10/18 06:14:11;;;;;;;;;;;12.80;86.30;;;;;;5090653;28;20310;-89
2022/10/18 06:16:37;;;;;;;;;;;12.80;85.60;;;;;;5090645;28;20392;-88
2022/10/18 06:19:02;;;;;;;;;;;12.80;85.40;;;;;;5091722;28;19946;-88
2022/10/18 06:21:28;;;;;;;;;;;12.90;85.70;;;;;;5091659;28;19958;-88
2022/10/18 06:23:56;;;;;;;;;;;12.90;86.10;;;;;;5092118;28;19989;-88
2022/10/18 06:26:22;;;;;;;;;;;13.00;86.30;;;;;;5093347;28;19943;-88
2022/10/18 06:28:47;;;;;;;;;;;13.10;86.70;;;;;;5088618;22;20328;-88
2022/10/18 06:31:14;;;;;;;;;;;13.10;86.80;;;;;;5052829;28;21683;-88
2022/10/18 06:33:39;;;;;;;;;;;13.20;86.80;;;;;;5069344;28;20418;-88
2022/10/18 06:36:06;;;;;;;;;;;13.20;87.20;;;;;;5071921;28;19990;-88
2022/10/18 06:38:32;;;;;;;;;;;13.30;87.30;;;;;;5073399;28;20414;-88
2022/10/18 06:40:58;;;;;;;;;;;13.20;87.70;;;;;;5071465;28;19962;-87
2022/10/18 06:43:24;;;;;;;;;;;13.20;88.20;;;;;;5069243;28;20125;-87
2022/10/18 06:45:50;;;;;;;;;;;13.40;87.90;;;;;;5070262;28;20043;-87
2022/10/18 06:48:16;;;;;;;;;;;13.40;88.00;;;;;;5072054;28;19946;-88
2022/10/18 06:50:41;;;;;;;;;;;13.50;88.10;;;;;;5072737;28;19944;-88
2022/10/18 06:53:07;;;;;;;;;;;13.50;88.40;;;;;;5092660;28;21793;-88
2022/10/18 06:55:34;;;;;;;;;;;13.70;88.60;;;;;;5090292;28;19955;-88
2022/10/18 06:57:59;;;;;;;;;;;13.70;88.90;;;;;;5090118;28;19949;-88
2022/10/18 07:00:25;;;;;;;;;;;13.80;89.20;;;;;;5090670;28;19968;-88
2022/10/18 07:02:50;;;;;;;;;;;13.90;89.60;;;;;;5088307;28;19950;-88
2022/10/18 07:05:16;;;;;;;;;;;13.90;89.70;;;;;;5083718;28;19948;-87
2022/10/18 07:07:41;;;;;;;;;;;14.00;89.90;;;;;;5091018;28;19951;-88
2022/10/18 07:10:07;;;;;;;;;;;14.10;90.00;;;;;;5092442;28;20321;-88
2022/10/18 07:12:32;;;;;;;;;;;14.20;90.20;;;;;;5085911;28;19955;-88
2022/10/18 07:14:58;;;;;;;;;;;14.30;90.30;;;;;;5092179;28;20553;-88
2022/10/18 07:17:23;;;;;;;;;;;14.50;89.60;;;;;;5095411;28;19942;-88
2022/10/18 07:19:49;;;;;;;;;;;14.60;89.30;;;;;;5091921;28;19969;-88
2022/10/18 07:22:15;;;;;;;;;;;14.70;89.20;;;;;;5093363;28;19967;-88
2022/10/18 07:24:40;;;;;;;;;;;14.80;88.80;;;;;;5094700;28;19944;-88
2022/10/18 07:27:06;;;;;;;;;;;14.90;88.40;;;;;;5090935;28;19944;-87
2022/10/18 07:29:32;;;;;;;;;;;15.00;87.90;;;;;;5095979;28;19973;-88
2022/10/18 07:31:58;;;;;;;;;;;15.00;87.50;;;;;;5093586;28;19946;-88
2022/10/18 07:34:23;;;;;;;;;;;15.10;87.30;;;;;;5094647;28;19948;-88
2022/10/18 07:36:49;;;;;;;;;;;15.10;87.40;;;;;;5095623;28;20046;-88
2022/10/18 07:39:14;;;;;;;;;;;15.10;87.60;;;;;;5094122;28;19944;-88
2022/10/18 07:41:40;;;;;;;;;;;15.10;87.80;;;;;;5097989;28;20055;-88
2022/10/18 07:44:06;;;;;;;;;;;15.10;87.80;;;;;;5094701;28;19961;-88
2022/10/18 07:46:31;;;;;;;;;;;15.10;87.80;;;;;;5094345;28;19947;-88
2022/10/18 07:48:58;;;;;;;;;;;15.20;87.80;;;;;;5095308;28;19947;-88
2022/10/18 07:51:24;;;;;;;;;;;15.30;87.60;;;;;;5093903;28;20056;-88
2022/10/18 07:53:50;;;;;;;;;;;15.40;87.30;;;;;;5093561;28;20037;-88
2022/10/18 07:56:19;;;;;;;;;;;15.60;86.10;;;;;;5092488;28;20152;-88
2022/10/18 07:58:45;;;;;;;;;;;15.70;85.60;;;;;;5094057;28;19952;-88
2022/10/18 08:01:11;;;;;;;;;;;15.80;84.90;;;;;;5095000;28;19963;-88
2022/10/18 08:03:37;;;;;;;;;;;15.80;84.70;;;;;;5092495;28;19942;-88
2022/10/18 08:06:03;;;;;;;;;;;15.90;84.80;;;;;;5095788;28;19947;-88
2022/10/18 08:08:29;;;;;;;;;;;16.00;84.70;;;;;;5074702;28;20033;-88
2022/10/18 08:10:58;;;;;;;;;;;16.10;85.00;;;;;;5096173;28;20030;-88
2022/10/18 08:13:24;;;;;;;;;;;16.10;84.90;;;;;;5094066;28;20393;-88
2022/10/18 08:15:49;;;;;;;;;;;16.20;85.00;;;;;;5095577;28;19946;-88
2022/10/18 08:18:15;;;;;;;;;;;16.30;85.10;;;;;;5094736;28;20414;-88
2022/10/18 08:20:44;;;;;;;;;;;16.40;84.40;;;;;;5092783;28;20011;-88
2022/10/18 08:23:09;;;;;;;;;;;16.60;83.90;;;;;;5093118;28;19947;-88
2022/10/18 08:25:35;;;;;;;;;;;16.60;84.10;;;;;;5093838;28;19947;-88
2022/10/18 08:28:00;;;;;;;;;;;16.70;83.80;;;;;;5093399;28;20013;-87
2022/10/18 08:30:26;;;;;;;;;;;16.80;83.60;;;;;;5094663;28;20351;-87
2022/10/18 08:32:52;;;;;;;;;;;16.90;83.20;;;;;;5095017;28;20322;-88
2022/10/18 08:35:17;;;;;;;;;;;17.00;83.00;;;;;;5091916;28;19949;-88
2022/10/18 08:37:44;;;;;;;;;;;17.10;83.00;;;;;;5091968;28;19951;-88
2022/10/18 08:40:11;;;;;;;;;;;17.20;83.10;;;;;;5093581;28;19947;-88
2022/10/18 08:43:06;;;;;;;;;;;17.30;82.80;;;;;;5093274;28;19963;-88
2022/10/18 08:45:35;;;;;;;;;;;17.30;83.00;;;;;;5070039;28;19943;-88
2022/10/18 08:48:03;;;;;;;;;;;17.40;82.30;;;;;;5094224;28;19944;-88
2022/10/18 08:50:38;;;;;;;;;;;17.50;81.40;;;;;;5091507;28;19943;-88
2022/10/18 08:53:24;;;;;;;;;;;17.60;80.80;;;;;;5088542;28;20468;-88
2022/10/18 08:56:13;;;;;;;;;;;17.80;80.50;;;;;;5080254;28;19965;-89
2022/10/18 08:58:40;;;;;;;;;;;17.90;80.40;;;;;;5092444;28;20425;-88
2022/10/18 09:01:21;;;;;;;;;;;18.00;80.20;;;;;;5089835;28;19970;-89
2022/10/18 09:04:04;;;;;;;;;;;18.10;80.90;;;;;;5094121;28;20028;-88
2022/10/18 09:06:36;;;;;;;;;;;18.20;80.50;;;;;;5093753;28;19949;-88
2022/10/18 09:09:07;;;;;;;;;;;18.40;79.10;;;;;;5088791;28;19999;-89
2022/10/18 09:11:39;;;;;;;;;;;18.50;78.70;;;;;;5087788;28;19945;-89
2022/10/18 09:14:04;;;;;;;;;;;18.70;78.80;;;;;;5091091;28;19952;-88
2022/10/18 09:16:45;;;;;;;;;;;18.80;77.20;;;;;;5090942;28;19949;-88
2022/10/18 09:19:22;;;;;;;;;;;18.90;76.40;;;;;;5093368;28;20029;-88
2022/10/18 09:21:51;;;;;;;;;;;19.00;77.00;;;;;;5092290;28;19955;-87
2022/10/18 09:24:34;;;;;;;;;;;19.10;76.50;;;;;;5091106;28;19991;-88
2022/10/18 09:27:03;;;;;;;;;;;19.30;76.00;;;;;;5092060;28;20010;-88
2022/10/18 09:29:47;;;;;;;;;;;19.40;75.20;;;;;;5092010;28;19970;-87
2022/10/18 09:32:31;;;;;;;;;;;19.40;75.40;;;;;;5087697;28;19947;-88
2022/10/18 09:35:04;;;;;;;;;;;19.50;75.20;;;;;;5092467;28;20611;-88
2022/10/18 09:37:32;;;;;;;;;;;19.70;74.90;;;;;;5093626;28;19945;-88
2022/10/18 09:40:18;;;;;;;;;;;19.80;74.30;;;;;;5090730;28;20361;-88
2022/10/18 09:43:05;;;;;;;;;;;19.90;73.40;;;;;;5093174;28;19963;-87
2022/10/18 09:45:33;;;;;;;;;;;20.00;73.90;;;;;;5090108;28;19943;-88
2022/10/18 09:47:59;;;;;;;;;;;20.10;72.20;;;;;;5093111;28;20066;-88
2022/10/18 09:50:28;;;;;;;;;;;20.10;72.10;;;;;;5092083;28;19953;-88
2022/10/18 09:53:01;;;;;;;;;;;20.20;72.10;;;;;;5090862;28;19969;-87
2022/10/18 09:55:30;;;;;;;;;;;20.20;72.10;;;;;;5088257;28;19944;-87
2022/10/18 09:57:59;;;;;;;;;;;20.30;71.30;;;;;;5088671;28;20006;-88
2022/10/18 10:00:28;;;;;;;;;;;20.30;71.40;;;;;;5088569;28;19944;-88
2022/10/18 10:02:54;;;;;;;;;;;20.40;70.20;;;;;;5089397;28;19945;-88
2022/10/18 10:05:19;;;;;;;;;;;20.50;70.70;;;;;;5082553;28;20443;-88
2022/10/18 10:07:46;;;;;;;;;;;20.60;70.00;;;;;;5092765;28;20011;-88
2022/10/18 10:10:11;;;;;;;;;;;20.80;71.20;;;;;;5093347;28;19945;-88
2022/10/18 10:12:37;;;;;;;;;;;20.80;69.70;;;;;;5093496;28;19946;-88
2022/10/18 10:15:21;;;;;;;;;;;20.80;70.00;;;;;;5093225;28;19947;-88
2022/10/18 10:17:57;;;;;;;;;;;20.90;68.70;;;;;;5093813;28;19980;-87
2022/10/18 10:20:24;;;;;;;;;;;21.00;68.50;;;;;;5093703;28;19942;-88
2022/10/18 10:22:50;;;;;;;;;;;21.10;68.20;;;;;;5093721;28;19942;-88
2022/10/18 10:25:19;;;;;;;;;;;21.10;68.00;;;;;;5093474;28;19998;-88
2022/10/18 10:27:45;;;;;;;;;;;21.30;68.90;;;;;;5093465;28;20028;-88
2022/10/18 10:30:30;;;;;;;;;;;21.30;67.00;;;;;;5093470;28;20019;-88
2022/10/18 10:32:56;;;;;;;;;;;21.30;66.50;;;;;;5093537;28;19976;-88
2022/10/18 10:35:32;;;;;;;;;;;21.30;66.10;;;;;;5093461;28;19982;-88
2022/10/18 10:37:58;;;;;;;;;;;21.50;66.80;;;;;;5093551;28;20057;-88
2022/10/18 10:40:29;;;;;;;;;;;21.60;66.70;;;;;;5093422;28;20380;-87
2022/10/18 10:43:03;;;;;;;;;;;21.80;65.80;;;;;;5093420;28;19984;-88
2022/10/18 10:45:31;;;;;;;;;;;22.00;66.30;;;;;;5073187;28;19954;-88
2022/10/18 10:48:05;;;;;;;;;;;22.10;64.50;;;;;;5073228;28;19939;-88
2022/10/18 10:50:30;;;;;;;;;;;22.20;63.50;;;;;;5072400;28;19936;-88
2022/10/18 10:52:57;;;;;;;;;;;22.30;64.40;;;;;;5073330;28;20410;-88
2022/10/18 10:55:27;;;;;;;;;;;22.30;63.50;;;;;;5093042;28;20042;-87
2022/10/18 10:57:54;;;;;;;;;;;22.50;60.90;;;;;;5093330;28;19996;-88
2022/10/18 11:00:38;;;;;;;;;;;22.50;60.20;;;;;;5093250;28;19947;-88
2022/10/18 11:03:14;;;;;;;;;;;22.70;61.30;;;;;;5093056;28;20033;-88
2022/10/18 11:05:47;;;;;;;;;;;22.80;60.30;;;;;;5093219;28;19954;-88
2022/10/18 11:08:18;;;;;;;;;;;23.10;60.90;;;;;;5093182;28;19949;-88
2022/10/18 11:10:53;;;;;;;;;;;23.30;59.10;;;;;;5092664;28;20372;-88
2022/10/18 11:13:31;;;;;;;;;;;23.40;59.30;;;;;;5093061;28;19950;-88
2022/10/18 11:16:06;;;;;;;;;;;23.70;58.90;;;;;;5080545;28;19944;-88
2022/10/18 11:18:32;;;;;;;;;;;23.70;57.80;;;;;;5092463;28;19942;-88
2022/10/18 11:21:07;;;;;;;;;;;24.00;57.30;;;;;;5072864;28;20021;-88
2022/10/18 11:23:33;;;;;;;;;;;24.10;56.50;;;;;;5089625;28;19943;-88
2022/10/18 11:26:11;;;;;;;;;;;23.80;56.80;;;;;;5088018;28;19950;-88
2022/10/18 11:28:42;;;;;;;;;;;23.90;56.50;;;;;;5092295;28;20392;-88
2022/10/18 11:31:23;;;;;;;;;;;24.00;56.90;;;;;;5089657;28;19975;-88
2022/10/18 11:34:01;;;;;;;;;;;24.20;56.00;;;;;;5087529;28;19948;-88
2022/10/18 11:36:33;;;;;;;;;;;24.30;55.90;;;;;;5088185;28;20455;-88
2022/10/18 11:39:21;;;;;;;;;;;24.50;54.70;;;;;;5088671;28;19953;-88
2022/10/18 11:41:51;;;;;;;;;;;24.80;54.60;;;;;;5087888;28;19966;-88
2022/10/18 11:44:17;;;;;;;;;;;25.10;53.70;;;;;;5091610;28;20528;-88
2022/10/18 11:46:51;;;;;;;;;;;25.10;53.20;;;;;;5091255;28;20057;-89
2022/10/18 11:49:32;;;;;;;;;;;25.10;52.90;;;;;;5088923;28;19944;-88
2022/10/18 11:52:06;;;;;;;;;;;25.20;53.40;;;;;;5090962;28;20422;-88
2022/10/18 11:54:50;;;;;;;;;;;25.00;53.00;;;;;;5091656;28;19947;-88
2022/10/18 11:57:16;;;;;;;;;;;25.30;52.60;;;;;;5081306;28;20422;-88
2022/10/18 11:59:59;;;;;;;;;;;26.10;51.80;;;;;;5092425;28;19954;-89
2022/10/18 12:02:28;;;;;;;;;;;27.00;50.60;;;;;;5077491;28;20058;-89
2022/10/18 12:04:56;;;;;;;;;;;27.70;47.10;;;;;;5095447;28;20443;-88
2022/10/18 12:07:22;;;;;;;;;;;28.00;46.60;;;;;;5095828;28;19944;-88
2022/10/18 12:09:50;;;;;;;;;;;28.40;45.50;;;;;;5095377;28;19959;-89
2022/10/18 12:12:18;;;;;;;;;;;28.70;44.10;;;;;;5093460;28;19948;-88
2022/10/18 12:14:46;;;;;;;;;;;29.60;43.60;;;;;;5094775;28;19950;-88
2022/10/18 12:17:19;;;;;;;;;;;29.50;42.80;;;;;;5084218;28;20038;-88
2022/10/18 12:19:46;;;;;;;;;;;29.70;42.60;;;;;;5091798;28;19944;-88
2022/10/18 12:22:27;;;;;;;;;;;29.70;43.30;;;;;;5093649;28;19967;-88
2022/10/18 12:24:52;;;;;;;;;;;29.50;43.10;;;;;;5095204;28;19946;-88
2022/10/18 12:27:21;;;;;;;;;;;29.60;44.00;;;;;;5095549;28;19945;-88
2022/10/18 12:29:54;;;;;;;;;;;29.50;42.60;;;;;;5094871;28;19981;-88
2022/10/18 12:32:28;;;;;;;;;;;29.40;43.30;;;;;;5091520;28;19957;-88
2022/10/18 12:34:58;;;;;;;;;;;29.40;42.50;;;;;;5094974;28;19950;-88
2022/10/18 12:37:33;;;;;;;;;;;29.50;42.20;;;;;;5095086;28;19943;-88
2022/10/18 12:40:00;;;;;;;;;;;30.40;41.10;;;;;;5094940;28;19957;-88
2022/10/18 12:42:28;;;;;;;;;;;31.30;40.10;;;;;;5089119;28;19982;-89
2022/10/18 12:45:05;;;;;;;;;;;32.00;38.90;;;;;;5094879;28;19943;-88
2022/10/18 12:47:30;;;;;;;;;;;32.20;38.10;;;;;;5094914;28;19947;-88
2022/10/18 12:49:57;;;;;;;;;;;32.30;38.00;;;;;;5095104;28;19942;-89
2022/10/18 12:52:24;;;;;;;;;;;31.70;37.80;;;;;;5095031;28;19955;-89
2022/10/18 12:55:08;;;;;;;;;;;31.70;38.10;;;;;;5093719;28;19997;-88
2022/10/18 12:57:52;;;;;;;;;;;31.80;38.90;;;;;;5094735;28;19942;-89
2022/10/18 13:00:30;;;;;;;;;;;31.50;38.70;;;;;;5092079;28;20387;-88
2022/10/18 13:03:19;;;;;;;;;;;30.50;40.60;;;;;;5092229;28;20003;-88
2022/10/18 13:05:51;;;;;;;;;;;30.10;41.30;;;;;;5092681;28;19945;-88
2022/10/18 13:08:37;;;;;;;;;;;29.80;41.40;;;;;;5093934;28;20042;-88
2022/10/18 13:11:11;;;;;;;;;;;30.50;40.70;;;;;;5093143;28;19949;-88
2022/10/18 13:13:46;;;;;;;;;;;31.10;39.60;;;;;;5094321;28;19967;-88
2022/10/18 13:16:30;;;;;;;;;;;31.30;39.60;;;;;;5093923;28;19950;-88
2022/10/18 13:19:28;;;;;;;;;;;30.90;40.90;;;;;;5077487;28;19941;-88
2022/10/18 13:22:05;;;;;;;;;;;31.30;39.30;;;;;;5045446;28;19977;-88
2022/10/18 13:24:37;;;;;;;;;;;31.10;39.10;;;;;;5094121;28;19950;-88
2022/10/18 13:27:22;;;;;;;;;;;30.50;40.50;;;;;;5094725;28;20004;-88
2022/10/18 13:30:09;;;;;;;;;;;30.10;41.40;;;;;;5093304;28;19983;-88
2022/10/18 13:32:53;;;;;;;;;;;30.30;40.30;;;;;;5056561;28;19953;-88
2022/10/18 13:35:37;;;;;;;;;;;30.10;41.10;;;;;;5082901;28;20431;-88
2022/10/18 13:38:04;;;;;;;;;;;30.40;40.30;;;;;;5094470;28;20480;-88
2022/10/18 13:40:31;;;;;;;;;;;30.20;40.80;;;;;;5075970;28;19953;-88
2022/10/18 13:42:56;;;;;;;;;;;29.90;42.30;;;;;;5093950;28;19937;-89
2022/10/18 13:45:31;;;;;;;;;;;30.00;41.80;;;;;;5093658;28;19939;-88
2022/10/18 13:48:15;;;;;;;;;;;30.10;41.90;;;;;;5093641;28;19947;-88
2022/10/18 13:50:41;;;;;;;;;;;30.00;42.20;;;;;;5091997;28;19951;-89
2022/10/18 13:53:33;;;;;;;;;;;29.70;42.00;;;;;;5093402;28;20073;-88
2022/10/18 13:56:07;;;;;;;;;;;30.00;41.70;;;;;;5069828;28;19959;-88
2022/10/18 13:58:53;;;;;;;;;;;30.10;41.10;;;;;;5094065;28;20378;-88
2022/10/18 14:01:28;;;;;;;;;;;30.20;40.80;;;;;;5058606;28;20333;-88
2022/10/18 14:04:18;;;;;;;;;;;29.80;42.10;;;;;;5084210;28;19961;-88
2022/10/18 14:06:45;;;;;;;;;;;30.30;41.30;;;;;;5093401;28;19945;-88
2022/10/18 14:09:13;;;;;;;;;;;30.70;41.30;;;;;;5093177;28;20525;-88
2022/10/18 14:11:41;;;;;;;;;;;30.40;41.10;;;;;;5092535;28;19945;-88
2022/10/18 14:14:19;;;;;;;;;;;30.60;40.60;;;;;;5093851;28;19971;-88
2022/10/18 14:16:57;;;;;;;;;;;30.80;41.00;;;;;;5093590;28;19941;-88
2022/10/18 14:19:40;;;;;;;;;;;31.00;40.70;;;;;;5093637;28;19945;-88
2022/10/18 14:22:11;;;;;;;;;;;31.10;40.70;;;;;;5087943;28;20437;-88
2022/10/18 14:24:38;;;;;;;;;;;31.30;39.80;;;;;;5092232;28;20403;-88
2022/10/18 14:27:11;;;;;;;;;;;31.20;40.60;;;;;;5093263;28;19943;-89
2022/10/18 14:29:37;;;;;;;;;;;30.70;41.20;;;;;;5082610;22;19987;-88